Time;durP1;ratioP1;P1;durP2;ratioP2;P2;SDS_P1;SDS_P2;PMS_P1;PMS_P2;Temp;Humidity;BMP_temperature;BMP_pressure;BME280_temperature;BME280_humidity;BME280_pressure;Samples;Min_cycle;Max_cycle;Signal;HPM_P1;HPM_P2
2021/10/12 00:00:08;;;;;;;25.00;14.05;;;10.50;99.90;;;;;;5002634;28;20165;-65
2021/10/12 00:02:33;;;;;;;24.75;14.10;;;10.50;99.90;;;;;;4999265;28;20038;-73
2021/10/12 00:04:59;;;;;;;22.77;13.57;;;10.50;99.90;;;;;;5000091;28;20566;-66
2021/10/12 00:07:25;;;;;;;23.40;13.95;;;10.50;99.90;;;;;;5002231;28;20476;-66
2021/10/12 00:09:51;;;;;;;23.33;14.10;;;10.50;99.90;;;;;;4999621;28;20105;-68
2021/10/12 00:12:17;;;;;;;24.58;14.32;;;10.50;99.90;;;;;;5002253;28;20387;-66
2021/10/12 00:14:42;;;;;;;19.63;14.27;;;10.50;99.90;;;;;;5002751;28;20026;-66
2021/10/12 00:17:08;;;;;;;21.20;13.75;;;10.50;99.90;;;;;;5001179;28;20391;-66
2021/10/12 00:19:34;;;;;;;22.48;14.23;;;10.50;99.90;;;;;;5000857;28;20049;-72
2021/10/12 00:21:59;;;;;;;23.13;14.68;;;10.50;99.90;;;;;;5010198;28;20065;-67
2021/10/12 00:24:25;;;;;;;19.85;13.15;;;10.40;99.90;;;;;;5012329;28;20076;-66
2021/10/12 00:26:51;;;;;;;22.88;14.85;;;10.40;99.90;;;;;;5011804;28;20792;-65
2021/10/12 00:29:17;;;;;;;24.55;14.68;;;10.40;99.90;;;;;;5012114;28;20034;-65
2021/10/12 00:31:43;;;;;;;22.80;13.90;;;10.40;99.90;;;;;;5010166;28;20045;-66
2021/10/12 00:34:08;;;;;;;23.33;13.18;;;10.30;99.90;;;;;;5012795;28;20105;-65
2021/10/12 00:36:34;;;;;;;23.92;15.20;;;10.50;99.90;;;;;;5011202;28;20030;-65
2021/10/12 00:39:02;;;;;;;20.10;13.18;;;10.40;99.90;;;;;;5011818;28;20436;-65
2021/10/12 00:41:28;;;;;;;21.08;13.40;;;10.40;99.90;;;;;;5010918;28;20061;-66
2021/10/12 00:43:54;;;;;;;22.40;14.52;;;10.50;99.90;;;;;;5011542;28;20396;-65
2021/10/12 00:46:20;;;;;;;22.17;14.07;;;10.40;99.90;;;;;;5010546;28;20043;-65
2021/10/12 00:48:45;;;;;;;19.55;13.45;;;10.50;99.90;;;;;;5009964;28;20091;-65
2021/10/12 00:51:11;;;;;;;25.38;13.93;;;10.30;99.90;;;;;;5010498;28;20121;-65
2021/10/12 00:53:37;;;;;;;26.13;13.63;;;10.30;99.90;;;;;;5011155;28;20419;-65
2021/10/12 00:56:03;;;;;;;20.38;12.90;;;10.30;99.90;;;;;;5011404;28;20388;-65
2021/10/12 00:58:29;;;;;;;18.85;12.35;;;10.40;99.90;;;;;;5011936;28;20482;-65
2021/10/12 01:00:54;;;;;;;20.08;12.10;;;10.50;99.90;;;;;;5011141;28;20057;-65
2021/10/12 01:03:20;;;;;;;20.77;12.02;;;10.50;99.90;;;;;;5010671;28;20091;-65
2021/10/12 01:05:46;;;;;;;24.50;13.05;;;10.50;99.90;;;;;;5011143;28;20141;-65
2021/10/12 01:08:12;;;;;;;18.98;13.05;;;10.40;99.90;;;;;;5010825;28;20018;-65
2021/10/12 01:10:37;;;;;;;17.58;11.23;;;10.30;99.90;;;;;;5009451;28;20482;-65
2021/10/12 01:13:03;;;;;;;19.77;12.15;;;10.30;99.90;;;;;;5011443;28;20026;-65
2021/10/12 01:15:31;;;;;;;19.63;12.10;;;10.40;99.90;;;;;;5011533;28;20152;-65
2021/10/12 01:17:58;;;;;;;21.58;12.40;;;10.40;99.90;;;;;;5009461;28;20030;-66
2021/10/12 01:20:26;;;;;;;17.83;12.32;;;10.40;99.90;;;;;;5011094;28;20049;-64
2021/10/12 01:22:53;;;;;;;19.42;12.02;;;10.30;99.90;;;;;;5010250;28;20060;-65
2021/10/12 01:25:18;;;;;;;20.63;11.13;;;10.30;99.90;;;;;;5011056;28;20068;-64
2021/10/12 01:27:44;;;;;;;24.45;12.55;;;10.30;99.90;;;;;;5009456;28;20053;-65
2021/10/12 01:30:12;;;;;;;20.23;11.60;;;10.20;99.90;;;;;;5010673;28;20038;-65
2021/10/12 01:32:42;;;;;;;20.52;11.65;;;10.30;99.90;;;;;;5009978;28;20364;-65
2021/10/12 01:35:09;;;;;;;17.15;11.55;;;10.30;99.90;;;;;;5010979;28;20060;-65
2021/10/12 01:37:36;;;;;;;25.17;12.68;;;10.40;99.90;;;;;;5010911;28;20021;-64
2021/10/12 01:40:02;;;;;;;19.45;11.60;;;10.40;99.90;;;;;;5010343;28;20384;-65
2021/10/12 01:42:28;;;;;;;23.65;11.27;;;10.40;99.90;;;;;;5010643;28;20034;-64
2021/10/12 01:44:54;;;;;;;21.23;11.85;;;10.30;99.90;;;;;;5010128;28;20026;-65
2021/10/12 01:47:20;;;;;;;20.38;10.57;;;10.30;99.90;;;;;;5010637;28;20030;-65
2021/10/12 01:49:46;;;;;;;20.02;11.13;;;10.30;99.90;;;;;;5008733;28;20037;-65
2021/10/12 01:52:13;;;;;;;19.52;11.35;;;10.30;99.90;;;;;;5010340;28;20049;-65
2021/10/12 01:54:39;;;;;;;22.75;12.40;;;10.40;99.90;;;;;;5009899;28;20215;-66
2021/10/12 01:57:04;;;;;;;19.30;12.60;;;10.40;99.90;;;;;;5009155;28;20033;-65
2021/10/12 01:59:30;;;;;;;19.88;11.85;;;10.30;99.90;;;;;;5010256;28;20117;-65
2021/10/12 02:01:58;;;;;;;17.85;11.18;;;10.30;99.90;;;;;;5008546;28;20034;-65
2021/10/12 02:04:24;;;;;;;23.52;12.30;;;10.30;99.90;;;;;;5010280;28;20144;-65
2021/10/12 02:06:49;;;;;;;19.38;10.55;;;10.30;99.90;;;;;;5008455;28;20049;-65
2021/10/12 02:09:15;;;;;;;16.35;10.30;;;10.30;99.90;;;;;;5008915;28;20125;-65
2021/10/12 02:11:41;;;;;;;18.55;12.18;;;10.30;99.90;;;;;;5008423;28;20022;-65
2021/10/12 02:14:06;;;;;;;19.50;10.73;;;10.30;99.90;;;;;;5008970;28;20121;-65
2021/10/12 02:16:32;;;;;;;21.80;11.23;;;10.30;99.90;;;;;;5010140;28;20041;-65
2021/10/12 02:18:57;;;;;;;18.48;10.38;;;10.40;99.90;;;;;;5009961;28;20561;-65
2021/10/12 02:21:23;;;;;;;21.23;11.70;;;10.40;99.90;;;;;;5010430;28;20468;-65
2021/10/12 02:23:49;;;;;;;17.85;10.00;;;10.50;99.90;;;;;;5009517;28;20447;-65
2021/10/12 02:26:15;;;;;;;18.40;10.43;;;10.50;99.90;;;;;;5009018;28;20140;-65
2021/10/12 02:28:40;;;;;;;17.88;9.68;;;10.40;99.90;;;;;;5008494;28;20113;-66
2021/10/12 02:31:06;;;;;;;15.32;8.98;;;10.50;99.90;;;;;;5007710;28;20026;-65
2021/10/12 02:33:32;;;;;;;20.50;10.48;;;10.60;99.90;;;;;;5011629;28;20076;-65
2021/10/12 02:35:57;;;;;;;19.23;9.63;;;10.60;99.90;;;;;;5009611;28;20030;-65
2021/10/12 02:38:23;;;;;;;19.38;10.55;;;10.60;99.90;;;;;;5010489;28;20387;-65
2021/10/12 02:40:49;;;;;;;15.18;9.35;;;10.60;99.90;;;;;;5009582;28;20088;-64
2021/10/12 02:43:15;;;;;;;15.77;10.57;;;10.70;99.90;;;;;;5010533;28;20036;-65
2021/10/12 02:45:41;;;;;;;13.02;9.13;;;10.70;99.90;;;;;;5008436;28;20022;-66
2021/10/12 02:48:07;;;;;;;12.55;8.52;;;10.70;99.90;;;;;;5010199;28;20464;-64
2021/10/12 02:50:32;;;;;;;19.90;9.75;;;10.80;99.90;;;;;;5010714;28;20408;-66
2021/10/12 02:52:58;;;;;;;14.85;8.68;;;10.80;99.90;;;;;;5008730;28;20415;-66
2021/10/12 02:55:23;;;;;;;14.82;9.95;;;10.80;99.90;;;;;;5010955;28;20044;-65
2021/10/12 02:57:49;;;;;;;19.00;8.75;;;10.90;99.90;;;;;;5009720;28;20105;-66
2021/10/12 03:00:15;;;;;;;14.80;8.23;;;11.00;99.90;;;;;;5010018;28;20041;-66
2021/10/12 03:02:41;;;;;;;18.25;7.90;;;10.90;99.90;;;;;;5010311;28;20547;-75
2021/10/12 03:05:07;;;;;;;15.07;9.55;;;11.00;99.90;;;;;;5010054;28;20129;-65
2021/10/12 03:07:33;;;;;;;16.80;9.00;;;11.10;99.90;;;;;;5010480;28;20044;-65
2021/10/12 03:09:58;;;;;;;21.10;9.25;;;11.00;99.90;;;;;;5009626;28;20462;-65
2021/10/12 03:12:24;;;;;;;15.90;8.98;;;11.10;99.90;;;;;;5010039;28;20033;-65
2021/10/12 03:14:50;;;;;;;18.23;10.05;;;11.00;99.90;;;;;;5009846;28;20463;-65
2021/10/12 03:17:15;;;;;;;18.17;8.40;;;11.00;99.90;;;;;;5010468;28;20034;-65
2021/10/12 03:19:41;;;;;;;13.93;8.68;;;11.00;99.90;;;;;;5010154;28;20126;-64
2021/10/12 03:22:11;;;;;;;17.27;8.70;;;11.10;99.90;;;;;;5010082;28;20033;-64
2021/10/12 03:24:38;;;;;;;15.00;8.98;;;11.10;99.90;;;;;;5008959;28;20034;-65
2021/10/12 03:27:09;;;;;;;15.45;9.10;;;11.10;99.90;;;;;;5009649;28;20056;-65
2021/10/12 03:29:36;;;;;;;16.02;9.40;;;11.00;99.90;;;;;;5010044;28;20160;-65
2021/10/12 03:32:02;;;;;;;13.93;8.35;;;11.00;99.90;;;;;;5011222;28;20042;-65
2021/10/12 03:34:29;;;;;;;16.83;9.00;;;11.10;99.90;;;;;;5013673;28;20463;-65
2021/10/12 03:36:59;;;;;;;17.23;8.55;;;11.00;99.90;;;;;;5011467;28;20033;-65
2021/10/12 03:39:25;;;;;;;16.52;8.52;;;11.10;99.90;;;;;;5012263;28;20466;-65
2021/10/12 03:41:52;;;;;;;20.10;8.68;;;11.10;99.90;;;;;;5011515;28;20030;-65
2021/10/12 03:44:19;;;;;;;15.90;8.05;;;11.00;99.90;;;;;;5013133;28;20099;-65
2021/10/12 03:46:45;;;;;;;11.77;7.88;;;10.90;99.90;;;;;;5012478;28;20113;-65
2021/10/12 03:49:11;;;;;;;20.05;7.78;;;11.10;99.90;;;;;;5013578;28;20401;-65
2021/10/12 03:51:36;;;;;;;13.18;7.38;;;11.10;99.90;;;;;;5013829;28;20490;-65
2021/10/12 03:54:02;;;;;;;16.48;7.97;;;11.00;99.90;;;;;;5012512;28;20101;-65
2021/10/12 03:56:29;;;;;;;15.18;8.40;;;11.00;99.90;;;;;;5013021;28;20060;-65
2021/10/12 03:58:54;;;;;;;12.93;8.13;;;11.10;99.90;;;;;;5010947;28;20406;-65
2021/10/12 04:01:21;;;;;;;16.20;8.30;;;11.10;99.90;;;;;;5013249;28;20113;-65
2021/10/12 04:03:48;;;;;;;19.63;9.65;;;11.00;99.90;;;;;;5012389;28;20495;-65
2021/10/12 04:06:15;;;;;;;19.10;9.10;;;11.10;99.90;;;;;;5011608;28;20057;-65
2021/10/12 04:08:42;;;;;;;13.77;9.65;;;11.10;99.90;;;;;;5013093;28;20033;-65
2021/10/12 04:11:07;;;;;;;17.77;9.35;;;11.00;99.90;;;;;;5010648;28;20034;-65
2021/10/12 04:13:33;;;;;;;16.90;9.13;;;11.00;99.90;;;;;;5011583;28;20030;-65
2021/10/12 04:15:59;;;;;;;19.23;9.70;;;11.00;99.90;;;;;;5011016;28;20440;-65
2021/10/12 04:18:24;;;;;;;19.67;9.90;;;11.00;99.90;;;;;;5011621;28;20409;-65
2021/10/12 04:20:50;;;;;;;20.00;10.38;;;10.90;99.90;;;;;;5012354;28;20030;-65
2021/10/12 04:23:16;;;;;;;16.05;10.05;;;10.90;99.90;;;;;;5011375;28;20510;-65
2021/10/12 04:25:42;;;;;;;17.45;10.82;;;10.90;99.90;;;;;;5012884;28;20127;-65
2021/10/12 04:28:12;;;;;;;17.30;10.85;;;10.90;99.90;;;;;;5012255;28;20029;-64
2021/10/12 04:30:42;;;;;;;18.58;11.43;;;11.00;99.90;;;;;;5012492;28;20135;-64
2021/10/12 04:33:08;;;;;;;22.15;12.77;;;10.90;99.90;;;;;;5011982;28;20022;-66
2021/10/12 04:35:34;;;;;;;16.80;11.05;;;10.80;99.90;;;;;;5011564;28;20022;-65
2021/10/12 04:38:00;;;;;;;19.25;11.57;;;10.70;99.90;;;;;;5010746;28;20033;-65
2021/10/12 04:40:26;;;;;;;18.40;11.20;;;10.70;99.90;;;;;;5012735;28;20358;-65
2021/10/12 04:42:52;;;;;;;17.40;11.50;;;10.70;99.90;;;;;;5011289;28;20080;-65
2021/10/12 04:45:18;;;;;;;20.45;10.82;;;10.70;99.90;;;;;;5012550;28;20109;-65
2021/10/12 04:47:44;;;;;;;24.08;12.35;;;10.70;99.90;;;;;;5012347;28;20205;-65
2021/10/12 04:50:10;;;;;;;20.50;11.85;;;10.70;99.90;;;;;;5012244;28;20522;-66
2021/10/12 04:52:36;;;;;;;16.00;11.73;;;10.60;99.90;;;;;;5012646;28;20030;-66
2021/10/12 04:55:03;;;;;;;18.17;11.18;;;10.70;99.90;;;;;;5010500;28;20030;-66
2021/10/12 04:57:28;;;;;;;15.45;11.00;;;10.70;99.90;;;;;;5011323;28;20120;-65
2021/10/12 04:59:54;;;;;;;20.02;11.45;;;10.80;99.90;;;;;;5011433;28;20472;-66
2021/10/12 05:02:20;;;;;;;18.08;11.65;;;10.80;99.90;;;;;;5012087;28;20037;-65
2021/10/12 05:04:46;;;;;;;20.15;12.25;;;10.80;99.90;;;;;;5010659;28;20128;-66
2021/10/12 05:07:12;;;;;;;18.23;12.10;;;10.80;99.90;;;;;;5011795;28;20405;-66
2021/10/12 05:09:37;;;;;;;16.98;11.32;;;10.80;99.90;;;;;;5010733;28;20053;-66
2021/10/12 05:12:03;;;;;;;22.13;12.60;;;10.90;99.90;;;;;;5010041;28;20030;-65
2021/10/12 05:14:29;;;;;;;19.17;11.57;;;10.90;99.90;;;;;;5010717;28;20075;-66
2021/10/12 05:16:56;;;;;;;19.80;11.45;;;11.00;99.90;;;;;;5011524;28;20106;-65
2021/10/12 05:19:21;;;;;;;23.00;12.60;;;11.00;99.90;;;;;;5010466;28;20038;-66
2021/10/12 05:21:49;;;;;;;26.77;13.10;;;10.90;99.90;;;;;;5011696;28;20026;-65
2021/10/12 05:24:14;;;;;;;20.92;13.02;;;10.90;99.90;;;;;;5011446;28;20033;-65
2021/10/12 05:26:42;;;;;;;17.05;12.27;;;10.90;99.90;;;;;;5011739;28;20104;-65
2021/10/12 05:29:10;;;;;;;21.55;12.20;;;10.90;99.90;;;;;;5010962;28;20053;-66
2021/10/12 05:31:36;;;;;;;22.67;13.63;;;10.90;99.90;;;;;;5011631;28;20037;-65
2021/10/12 05:34:01;;;;;;;17.95;11.52;;;10.90;99.90;;;;;;5011018;28;20026;-65
2021/10/12 05:36:27;;;;;;;23.48;14.60;;;10.90;99.90;;;;;;5011301;28;20104;-65
2021/10/12 05:38:53;;;;;;;23.30;13.07;;;10.90;99.90;;;;;;5009264;28;20034;-67
2021/10/12 05:41:18;;;;;;;23.67;15.60;;;10.90;99.90;;;;;;5009887;28;20539;-66
2021/10/12 05:43:44;;;;;;;30.45;14.80;;;10.90;99.90;;;;;;5009962;28;20022;-66
2021/10/12 05:46:10;;;;;;;23.20;14.23;;;10.80;99.90;;;;;;5010514;28;20312;-65
2021/10/12 05:48:35;;;;;;;25.52;14.13;;;10.80;99.90;;;;;;5010208;28;20030;-64
2021/10/12 05:51:01;;;;;;;22.42;16.20;;;10.80;99.90;;;;;;5009366;28;20033;-64
2021/10/12 05:53:39;;;;;;;24.25;14.00;;;10.80;99.90;;;;;;5011171;28;20026;-68
2021/10/12 05:59:03;;;;;;;27.05;14.68;;;10.90;99.90;;;;;;5008840;28;20046;-65
2021/10/12 06:01:28;;;;;;;24.15;15.85;;;10.90;99.90;;;;;;5011302;28;20088;-65
2021/10/12 06:03:54;;;;;;;30.63;16.25;;;10.90;99.90;;;;;;5009009;28;20040;-66
2021/10/12 06:06:20;;;;;;;26.60;15.57;;;10.90;99.90;;;;;;5009701;28;20077;-65
2021/10/12 06:08:46;;;;;;;21.65;13.63;;;10.90;99.90;;;;;;5009106;28;20041;-67
2021/10/12 06:11:11;;;;;;;26.67;14.63;;;11.00;99.90;;;;;;5008815;28;20249;-66
2021/10/12 06:13:39;;;;;;;25.88;14.43;;;11.10;99.90;;;;;;5011238;28;20129;-66
2021/10/12 06:16:05;;;;;;;22.83;13.23;;;10.90;99.90;;;;;;5008625;28;20096;-65
2021/10/12 06:18:31;;;;;;;24.40;13.93;;;11.00;99.90;;;;;;5008985;28;20112;-66
2021/10/12 06:20:57;;;;;;;17.25;12.90;;;10.90;99.90;;;;;;5009941;28;20491;-66
2021/10/12 06:23:24;;;;;;;22.27;12.50;;;10.90;99.90;;;;;;5009278;28;20025;-65
2021/10/12 06:25:51;;;;;;;22.08;13.32;;;11.00;99.90;;;;;;5009149;28;20324;-65
2021/10/12 06:28:19;;;;;;;23.48;11.43;;;11.00;99.90;;;;;;5008506;28;20084;-66
2021/10/12 06:30:45;;;;;;;18.67;12.65;;;11.00;99.90;;;;;;5010309;28;20547;-65
2021/10/12 06:33:11;;;;;;;21.65;13.48;;;11.00;99.90;;;;;;5008575;28;20030;-65
2021/10/12 06:35:37;;;;;;;27.40;14.43;;;11.00;99.90;;;;;;5010551;28;20034;-65
2021/10/12 06:38:04;;;;;;;19.30;12.57;;;11.00;99.90;;;;;;5009418;28;20076;-65
2021/10/12 06:40:30;;;;;;;21.05;13.13;;;11.00;99.90;;;;;;5010246;28;20544;-65
2021/10/12 06:42:56;;;;;;;21.98;12.98;;;11.00;99.90;;;;;;5009553;28;20114;-65
2021/10/12 06:45:23;;;;;;;22.00;12.43;;;10.90;99.90;;;;;;5009258;28;20033;-66
2021/10/12 06:47:50;;;;;;;20.48;12.05;;;10.80;99.90;;;;;;4992155;28;20040;-66
2021/10/12 06:50:18;;;;;;;25.38;13.98;;;10.80;99.90;;;;;;5009540;28;20029;-65
2021/10/12 06:52:44;;;;;;;23.77;13.98;;;10.70;99.90;;;;;;5010337;28;20482;-66
2021/10/12 06:55:11;;;;;;;20.60;12.90;;;10.70;99.90;;;;;;5008163;28;20030;-64
2021/10/12 06:57:38;;;;;;;20.20;12.70;;;10.60;99.90;;;;;;5009275;28;20025;-65
2021/10/12 07:00:05;;;;;;;19.63;13.20;;;10.60;99.90;;;;;;5007765;28;20107;-65
2021/10/12 07:02:31;;;;;;;27.23;12.82;;;10.70;99.90;;;;;;5010629;28;20049;-66
2021/10/12 07:04:57;;;;;;;18.40;11.70;;;10.80;99.90;;;;;;5008202;28;20054;-66
2021/10/12 07:07:22;;;;;;;18.60;10.75;;;10.80;99.90;;;;;;5009569;28;20029;-65
2021/10/12 07:09:48;;;;;;;19.67;10.43;;;10.80;99.90;;;;;;5014125;28;20100;-65
2021/10/12 07:12:14;;;;;;;26.10;10.57;;;10.90;99.90;;;;;;5014013;28;20026;-65
2021/10/12 07:14:40;;;;;;;20.33;9.38;;;10.90;99.90;;;;;;5012380;28;20380;-65
2021/10/12 07:17:05;;;;;;;19.15;11.25;;;10.90;99.90;;;;;;5011675;28;20103;-66
2021/10/12 07:19:31;;;;;;;18.45;9.73;;;10.90;99.90;;;;;;5013746;28;20112;-65
2021/10/12 07:21:57;;;;;;;20.90;10.63;;;11.00;99.90;;;;;;5012765;28;20510;-73
2021/10/12 07:24:23;;;;;;;21.77;10.70;;;11.00;99.90;;;;;;5010853;28;20383;-66
2021/10/12 07:26:49;;;;;;;22.98;11.40;;;11.10;99.90;;;;;;5011767;28;20072;-64
2021/10/12 07:29:15;;;;;;;17.77;8.50;;;11.10;99.90;;;;;;5012845;28;20030;-64
2021/10/12 07:31:41;;;;;;;15.70;9.25;;;11.20;99.90;;;;;;5013371;28;20037;-64
2021/10/12 07:34:07;;;;;;;14.07;9.65;;;11.20;99.90;;;;;;5012917;28;20026;-64
2021/10/12 07:36:33;;;;;;;13.98;9.93;;;11.30;99.90;;;;;;5012107;28;20112;-65
2021/10/12 07:38:59;;;;;;;15.00;9.27;;;11.40;99.90;;;;;;5010852;28;20120;-66
2021/10/12 07:41:25;;;;;;;11.25;9.10;;;11.40;99.90;;;;;;5012382;28;20041;-65
2021/10/12 07:43:51;;;;;;;21.05;10.23;;;11.40;99.90;;;;;;5012166;28;20065;-65
2021/10/12 07:46:16;;;;;;;18.52;10.13;;;11.30;99.90;;;;;;5009056;28;20026;-66
2021/10/12 07:48:42;;;;;;;14.10;8.73;;;11.30;99.90;;;;;;4999185;28;20041;-66
2021/10/12 07:51:08;;;;;;;14.68;9.40;;;11.20;99.90;;;;;;5011656;28;20097;-65
2021/10/12 07:53:36;;;;;;;13.65;8.77;;;11.30;99.90;;;;;;5007277;28;20035;-65
2021/10/12 07:56:05;;;;;;;15.90;10.23;;;11.20;99.90;;;;;;5007591;28;20065;-65
2021/10/12 07:58:31;;;;;;;13.98;8.63;;;11.30;99.90;;;;;;5013015;28;20379;-65
2021/10/12 08:00:57;;;;;;;17.05;9.50;;;11.30;99.90;;;;;;5010141;28;20082;-67
2021/10/12 08:03:22;;;;;;;23.77;9.68;;;11.30;99.90;;;;;;5008077;28;20801;-65
2021/10/12 08:05:48;;;;;;;13.15;8.15;;;11.30;99.90;;;;;;5009806;28;20042;-66
2021/10/12 08:08:13;;;;;;;13.77;7.63;;;11.30;99.90;;;;;;5007426;28;20030;-65
2021/10/12 08:10:40;;;;;;;13.60;8.13;;;11.30;99.90;;;;;;5001070;28;20068;-68
2021/10/12 08:13:10;;;;;;;15.07;7.28;;;11.30;99.90;;;;;;4998579;28;20160;-65
2021/10/12 08:15:37;;;;;;;14.32;8.32;;;11.30;99.90;;;;;;5000660;28;20360;-65
2021/10/12 08:18:03;;;;;;;13.48;7.70;;;11.40;99.90;;;;;;4998875;28;20146;-65
2021/10/12 08:20:29;;;;;;;13.10;6.63;;;11.50;99.90;;;;;;5002256;28;20192;-65
2021/10/12 08:22:54;;;;;;;10.27;6.45;;;11.60;99.90;;;;;;5001451;28;20022;-65
2021/10/12 08:25:20;;;;;;;13.23;6.88;;;11.60;99.90;;;;;;5001403;28;20026;-69
2021/10/12 08:27:46;;;;;;;10.45;6.47;;;11.60;99.90;;;;;;5009450;28;20044;-65
2021/10/12 08:30:12;;;;;;;8.65;5.57;;;11.50;99.90;;;;;;5009310;28;20063;-64
2021/10/12 08:32:39;;;;;;;16.40;5.88;;;11.40;99.90;;;;;;5011155;28;20036;-65
2021/10/12 08:35:09;;;;;;;12.88;6.38;;;11.50;99.90;;;;;;5011956;28;20088;-65
2021/10/12 08:37:36;;;;;;;14.88;5.72;;;11.40;99.90;;;;;;5011072;28;20423;-65
2021/10/12 08:40:04;;;;;;;11.52;6.28;;;11.40;99.90;;;;;;5011309;28;20088;-65
2021/10/12 08:42:34;;;;;;;20.85;7.13;;;11.40;99.90;;;;;;5010554;28;20411;-66
2021/10/12 08:45:03;;;;;;;7.97;5.60;;;11.40;99.90;;;;;;5011700;28;20084;-76
2021/10/12 08:47:30;;;;;;;14.23;6.32;;;11.40;99.90;;;;;;5011880;28;20459;-65
2021/10/12 08:49:57;;;;;;;11.98;6.35;;;11.50;99.90;;;;;;5011788;28;20088;-65
2021/10/12 08:52:23;;;;;;;10.02;5.78;;;11.40;99.90;;;;;;5009679;28;20032;-64
2021/10/12 08:54:54;;;;;;;13.43;6.50;;;11.40;99.90;;;;;;5010592;28;20057;-65
2021/10/12 08:57:49;;;;;;;10.93;4.72;;;11.40;99.90;;;;;;5011222;28;20078;-65
2021/10/12 09:00:19;;;;;;;16.70;4.25;;;11.40;99.90;;;;;;5000861;28;20045;-64
2021/10/12 09:05:58;;;;;;;12.70;4.53;;;11.20;99.90;;;;;;5002942;28;20101;-64
2021/10/12 09:08:43;;;;;;;7.28;4.43;;;11.10;99.90;;;;;;5011198;28;20052;-65
2021/10/12 09:11:21;;;;;;;8.18;4.15;;;11.20;99.90;;;;;;5009093;28;20025;-65
2021/10/12 09:13:49;;;;;;;8.63;5.20;;;11.20;99.90;;;;;;5010378;28;20360;-66
2021/10/12 09:16:17;;;;;;;9.23;4.38;;;11.20;99.90;;;;;;5009680;28;20030;-64
2021/10/12 09:18:45;;;;;;;9.48;5.10;;;11.20;99.90;;;;;;5010278;28;20042;-65
2021/10/12 09:21:16;;;;;;;7.88;4.40;;;11.30;99.90;;;;;;5010024;28;20038;-65
2021/10/12 09:23:42;;;;;;;5.90;3.65;;;11.30;99.90;;;;;;5010057;28;20117;-64
2021/10/12 09:26:28;;;;;;;9.60;6.00;;;11.30;99.90;;;;;;5009579;28;20034;-65
2021/10/12 09:29:04;;;;;;;7.78;4.95;;;11.30;99.90;;;;;;5009527;28;20034;-65
2021/10/12 09:31:41;;;;;;;13.93;6.15;;;11.40;99.90;;;;;;5010049;28;20025;-65
2021/10/12 09:34:09;;;;;;;14.27;5.85;;;11.50;99.90;;;;;;5009764;28;20030;-65
2021/10/12 09:36:40;;;;;;;25.17;7.57;;;11.50;99.90;;;;;;5011556;28;20053;-65
2021/10/12 09:39:09;;;;;;;8.68;5.30;;;11.60;99.90;;;;;;5009677;28;20344;-65
2021/10/12 09:41:35;;;;;;;14.35;5.60;;;11.60;99.90;;;;;;5009645;28;20049;-65
2021/10/12 09:44:15;;;;;;;10.95;5.47;;;11.60;99.90;;;;;;5010260;28;20030;-65
2021/10/12 09:46:45;;;;;;;9.68;5.07;;;11.60;99.90;;;;;;5010925;28;20495;-65
2021/10/12 09:49:21;;;;;;;10.13;5.72;;;11.50;99.90;;;;;;5008972;28;20082;-66
2021/10/12 09:51:59;;;;;;;8.93;5.60;;;11.60;99.90;;;;;;5009818;28;20384;-65
2021/10/12 09:54:29;;;;;;;12.32;5.35;;;11.60;99.90;;;;;;5008940;28;20034;-66
2021/10/12 09:56:56;;;;;;;11.95;6.30;;;11.70;99.90;;;;;;5011876;28;20026;-65
2021/10/12 09:59:22;;;;;;;10.93;6.10;;;11.70;99.90;;;;;;5010017;28;20038;-65
2021/10/12 10:01:48;;;;;;;12.65;5.97;;;11.70;99.90;;;;;;5010191;28;20034;-65
2021/10/12 10:04:19;;;;;;;17.25;7.32;;;11.80;99.90;;;;;;5008421;28;20030;-65
2021/10/12 10:06:49;;;;;;;8.43;6.07;;;12.00;99.90;;;;;;5010876;28;20042;-65
2021/10/12 10:09:18;;;;;;;15.25;6.82;;;12.20;99.90;;;;;;5025152;28;20379;-64
2021/10/12 10:11:44;;;;;;;11.93;6.32;;;12.40;99.90;;;;;;5010650;28;20038;-65
2021/10/12 10:14:15;;;;;;;9.30;5.82;;;12.50;99.90;;;;;;5009092;28;20037;-65
2021/10/12 10:16:45;;;;;;;12.93;6.00;;;12.70;99.90;;;;;;5025997;28;20099;-64
2021/10/12 10:19:23;;;;;;;13.35;6.75;;;13.00;99.90;;;;;;5008942;28;20038;-65
2021/10/12 10:21:49;;;;;;;11.65;6.03;;;12.80;99.90;;;;;;5011450;28;20038;-65
2021/10/12 10:24:29;;;;;;;8.68;6.35;;;12.70;99.90;;;;;;5009311;28;20113;-65
2021/10/12 10:26:54;;;;;;;9.43;6.15;;;12.70;99.90;;;;;;5009155;28;20033;-66
2021/10/12 10:29:38;;;;;;;13.57;6.28;;;12.50;99.90;;;;;;5008706;28;20026;-65
2021/10/12 10:32:18;;;;;;;10.80;5.43;;;12.50;99.90;;;;;;5010975;28;20069;-65
2021/10/12 10:35:07;;;;;;;12.45;5.75;;;12.50;99.90;;;;;;5009269;28;20030;-65
2021/10/12 10:37:34;;;;;;;14.27;5.60;;;12.50;99.90;;;;;;5009485;28;20356;-65
2021/10/12 10:40:27;;;;;;;12.13;5.72;;;12.40;99.90;;;;;;5009156;28;20398;-65
2021/10/12 10:42:55;;;;;;;9.73;5.22;;;12.40;99.90;;;;;;5005745;28;20091;-66
2021/10/12 10:45:39;;;;;;;13.15;4.65;;;12.40;99.90;;;;;;5014264;28;20419;-65
2021/10/12 10:48:05;;;;;;;7.28;4.30;;;12.40;99.90;;;;;;5014281;28;20427;-65
2021/10/12 10:50:34;;;;;;;14.20;5.68;;;12.30;99.90;;;;;;5013879;28;20048;-65
2021/10/12 10:53:03;;;;;;;14.43;4.93;;;12.20;99.90;;;;;;5015085;28;20029;-65
2021/10/12 10:55:30;;;;;;;15.55;5.43;;;12.30;99.90;;;;;;5014292;28;20025;-68
2021/10/12 10:58:11;;;;;;;13.45;5.97;;;12.30;99.90;;;;;;5014221;28;20036;-65
2021/10/12 11:00:52;;;;;;;8.75;4.30;;;12.20;99.90;;;;;;5012545;28;20096;-65
2021/10/12 11:03:35;;;;;;;13.35;5.18;;;12.20;99.90;;;;;;5013335;28;20041;-66
2021/10/12 11:06:20;;;;;;;8.85;5.00;;;12.30;99.90;;;;;;5013917;28;20046;-65
2021/10/12 11:09:00;;;;;;;11.15;6.05;;;12.30;99.90;;;;;;5014044;28;20113;-65
2021/10/12 11:11:36;;;;;;;12.30;5.07;;;12.40;99.90;;;;;;5013466;28;20026;-65
2021/10/12 11:14:03;;;;;;;10.13;4.00;;;12.40;99.90;;;;;;5012464;28;20316;-66
2021/10/12 11:16:36;;;;;;;8.93;4.00;;;12.40;99.90;;;;;;5012144;28;20233;-66
2021/10/12 11:19:05;;;;;;;11.77;4.88;;;12.30;99.90;;;;;;5012682;28;20137;-66
2021/10/12 11:21:31;;;;;;;8.05;3.38;;;12.30;99.90;;;;;;5013552;28;20109;-66
2021/10/12 11:24:02;;;;;;;8.18;3.20;;;12.30;99.90;;;;;;5012812;28;20028;-66
2021/10/12 11:26:28;;;;;;;8.32;3.22;;;12.30;99.90;;;;;;5012280;28;20057;-65
2021/10/12 11:28:59;;;;;;;9.20;2.92;;;12.30;99.90;;;;;;5012247;28;20092;-67
2021/10/12 11:31:30;;;;;;;13.38;3.78;;;12.30;99.90;;;;;;5012049;28;20365;-65
2021/10/12 11:33:58;;;;;;;10.23;3.78;;;12.30;99.90;;;;;;5012732;28;20037;-65
2021/10/12 11:36:28;;;;;;;8.90;3.22;;;12.30;99.90;;;;;;5011189;28;20026;-65
2021/10/12 11:38:57;;;;;;;9.50;3.38;;;12.20;99.90;;;;;;5011859;28;20069;-65
2021/10/12 11:41:35;;;;;;;9.10;2.92;;;12.30;99.90;;;;;;5013249;28;20022;-66
2021/10/12 11:44:21;;;;;;;9.23;3.58;;;12.30;99.90;;;;;;5012223;28;20336;-66
2021/10/12 11:46:52;;;;;;;4.95;3.22;;;12.20;99.90;;;;;;5013351;28;20471;-67
2021/10/12 11:49:20;;;;;;;6.63;2.97;;;12.30;99.90;;;;;;5011769;28;20555;-65
2021/10/12 11:51:48;;;;;;;4.50;2.45;;;12.20;99.90;;;;;;5011793;28;20129;-66
2021/10/12 11:54:19;;;;;;;6.75;3.08;;;12.20;99.90;;;;;;5011219;28;20026;-67
2021/10/12 11:56:45;;;;;;;4.60;2.88;;;12.10;99.90;;;;;;5011996;28;20030;-67
2021/10/12 11:59:12;;;;;;;5.75;2.67;;;12.10;99.90;;;;;;5011358;28;20045;-76
2021/10/12 12:01:42;;;;;;;8.32;3.22;;;12.10;99.90;;;;;;5011484;28;20038;-66
2021/10/12 12:04:08;;;;;;;8.20;2.92;;;12.20;99.90;;;;;;5013095;28;20201;-64
2021/10/12 12:06:39;;;;;;;8.18;3.30;;;12.20;99.90;;;;;;5011323;28;20053;-66
2021/10/12 12:09:16;;;;;;;6.85;2.75;;;12.20;99.90;;;;;;5012239;28;20438;-66
2021/10/12 12:11:42;;;;;;;11.85;2.40;;;12.20;99.90;;;;;;5013428;28;20038;-65
2021/10/12 12:14:08;;;;;;;4.72;2.03;;;12.30;99.90;;;;;;5011701;28;20034;-65
2021/10/12 12:16:34;;;;;;;7.18;2.40;;;12.30;99.90;;;;;;5010338;28;20034;-65
2021/10/12 12:19:16;;;;;;;5.80;2.85;;;12.30;99.90;;;;;;5013117;28;20447;-65
2021/10/12 12:21:42;;;;;;;5.53;2.25;;;12.30;99.90;;;;;;5013461;28;20033;-65
2021/10/12 12:24:07;;;;;;;6.10;1.95;;;12.30;99.90;;;;;;5012675;28;20087;-65
2021/10/12 12:26:33;;;;;;;2.63;1.60;;;12.40;99.90;;;;;;5012775;28;20108;-66
2021/10/12 12:29:34;;;;;;;10.60;1.88;;;12.50;99.90;;;;;;5013005;28;20487;-66
2021/10/12 12:32:00;;;;;;;3.57;2.07;;;12.50;99.90;;;;;;4955132;28;20062;-65
2021/10/12 12:34:34;;;;;;;5.00;2.42;;;12.50;99.90;;;;;;5003501;28;20480;-65
2021/10/12 12:37:02;;;;;;;3.65;1.77;;;12.60;99.90;;;;;;5012272;28;20026;-66
2021/10/12 12:39:36;;;;;;;4.78;1.85;;;12.60;99.90;;;;;;5010353;28;20064;-66
2021/10/12 12:42:06;;;;;;;5.28;1.80;;;12.60;99.90;;;;;;5011288;28;20080;-66